Goodrich, Michigan
Current Conditions -  °F | °C
As of 12:53 AM on Thursday 18 Dec 2014 (Local Time) from KFNT Reporting Station
Overcast Overcast  
Wind Chill: 20°   Ceiling: 1500
Heat Index: 30°   Visibility: 10mi
Dew Point: 22°   Wind: 14mph
Humidity: 72%   Direction: 270°W
Pressure: 30.15"   Gusts: NA
Location:  42.92°N, 83.51°W
Report Text: KFNT 180553Z AUTO 27012KT 10SM OVC015 M01/M06 A3015 RMK AO2 SLP219 T10111056 11011 21022 53011
Loading
Personal Weather Stations






























Interactive Weather Map New forecast layout! Learn more

10-Day Weather Forecast

Advertisements
Track Severe Weather on mobile